Stunt Ranch Reserve, Santa Monica Mtns, California Weather observations

Data are for 10 minute period ending at time listed.
 Day   Time   Solar   Ave.   Ave.  Ave.  Vector  Max.   Baro.   Total    
  of    of     Rad.   Air    Rel.  Wind   Wind   Wind  Press.  Precip.   
Year   Day            Temp.  Hum.  Speed  Dir.   Gust                    
2015   (PST)  Kw/m2    F      %     mph   deg.    mph    mb.     in.     
-------------------------------------------------------------------------
 114   18:10   0.02   57.8    72    1.4   309     3.7   968.8    0.00 
 114   18:20   0.01   57.5    73    1.3   284     3.7   968.8    0.00 
 114   18:30   0.01   57.0    75    0.7   250     2.9   968.5    0.00 
 114   18:40   0.00   56.4    76    1.1    60     2.2   968.5    0.00 
 114   18:50   0.00   56.1    76    0.7   345     1.4   968.5    0.00 
 114   19:00   0.00   56.1    76    0.7   288     1.5   968.8    0.00 
 114   19:10   0.00   56.1    76    1.3   278     2.1   968.8    0.00 
 114   19:20   0.00   56.0    77    0.1   313     0.9   968.8    0.00 
 114   19:30   0.00   55.5    78    1.4   112     2.2   968.8    0.00 
 114   19:40   0.00   55.2    79    1.3   142     2.0   969.2    0.00 
 114   19:50   0.00   55.2    78    1.3   144     2.4   969.2    0.00 
 114   20:00   0.00   55.0    79    2.4   122     2.8   969.2    0.00 
 114   20:10   0.00   54.8    79    1.2   156     2.4   969.2    0.00 
 114   20:20   0.00   54.4    80    1.9   247     2.6   969.2    0.00 
 114   20:30   0.00   53.8    81    1.9   265     3.7   969.5    0.00 
 114   20:40   0.00   53.1    82    0.3   144     1.8   969.5    0.00 
 114   20:50   0.00   52.8    81    1.7   151     2.7   969.5    0.00 
 114   21:00   0.00   52.8    81    1.1   163     2.3   969.5    0.00 
 114   21:10   0.00   53.0    80    1.4   162     2.5   969.5    0.00 
 114   21:20   0.00   52.9    81    1.0   147     2.3   969.5    0.00 
 114   21:30   0.00   52.2    82    1.4   154     3.1   969.2    0.00 
 114   21:40   0.00   51.9    82    2.1   166     3.4   969.5    0.00 
 114   21:50   0.00   52.1    81    4.1   134     6.4   969.2    0.00 
 114   22:00   0.00   52.3    80    1.4   148     2.9   969.2    0.00 
 114   22:10   0.00   52.1    80    1.8   143     3.6   969.2    0.00 
 114   22:20   0.00   52.5    79    1.2   203     3.7   968.8    0.00 
 114   22:30   0.00   52.7    78    3.0   209     4.3   968.8    0.00 
 114   22:40   0.00   52.9    77    2.5   236     5.8   968.8    0.00 
 114   22:50   0.00   52.2    79    1.4   276     2.6   968.8    0.00 
 114   23:00   0.00   51.6    82    0.9   277     1.5   968.5    0.00 
 114   23:10   0.00   51.5    82    1.8   232     2.9   968.5    0.00 
 114   23:20   0.00   51.3    82    1.2   306     2.5   968.8    0.00 
 114   23:30   0.00   50.9    84    1.4   170     2.8   968.8    0.00 
 114   23:40   0.00   50.7    85    0.5   268     1.9   968.8    0.00 
 114   23:50   0.00   50.5    85    0.1   223     0.9   968.8    0.00 
 115    0:00   0.00   50.3    86    0.3   209     1.1   968.8    0.00 
 115    0:10   0.00   50.8    86    1.1   243     1.8   968.5    0.00 
 115    0:20   0.00   50.7    85    0.2   245     1.4   968.5    0.00 
 115    0:30   0.00   50.3    86    0.6   244     1.2   968.5    0.00 
 115    0:40   0.00   50.4    86    0.6   270     1.6   968.5    0.00 
 115    0:50   0.00   50.1    87    0.7   261     1.4   968.5    0.00 
 115    1:00   0.00   49.7    87    0.6   253     1.9   968.2    0.00 
 115    1:10   0.00   49.4    88    0.7   216     1.6   968.2    0.00 
 115    1:20   0.00   48.6    88    1.9   174     3.0   968.2    0.00 
 115    1:30   0.00   49.2    88    0.4   152     1.8   968.2    0.00 
 115    1:40   0.00   49.2    87    1.5   169     3.1   968.2    0.00 
 115    1:50   0.00   48.8    87    2.3   195     2.9   967.8    0.00 
 115    2:00   0.00   49.5    86    0.4   245     2.3   967.8    0.00 
 115    2:10   0.00   49.9    84    0.8   185     2.3   967.8    0.00 
 115    2:20   0.00   49.9    83    0.8   163     2.7   967.8    0.00 
 115    2:30   0.00   49.8    84    1.4   144     2.4   967.8    0.00 
 115    2:40   0.00   50.0    83    1.4   203     2.0   968.2    0.00 
 115    2:50   0.00   49.6    83    1.2   242     2.3   968.2    0.00 
 115    3:00   0.00   49.5    82    1.4   214     3.1   968.2    0.00 
 115    3:10   0.00   49.3    81    0.9   189     2.0   968.2    0.00 
 115    3:20   0.00   49.6    80    1.9   176     3.1   968.2    0.00 
 115    3:30   0.00   49.2    81    0.5   167     2.0   967.8    0.00 
 115    3:40   0.00   49.0    82    1.3   168     2.1   967.8    0.00 
 115    3:50   0.00   49.6    80    1.2   274     2.5   967.8    0.00 
 115    4:00   0.00   48.8    82    1.2   279     2.3   967.8    0.00 
 115    4:10   0.00   48.6    83    0.4   149     1.8   967.8    0.00 
 115    4:20   0.00   48.8    82    1.0   155     3.2   967.8    0.00 
 115    4:30   0.00   48.8    83    1.4   245     2.6   967.8    0.00 
 115    4:40   0.00   48.8    83    0.9   269     2.4   967.8    0.00 
 115    4:50   0.00   48.4    84    0.6   159     2.0   967.8    0.00 
 115    5:00   0.00   47.5    87    2.7   126     3.8   967.5    0.00 
 115    5:10   0.00   48.3    86    0.9   131     2.3   967.5    0.00 
 115    5:20   0.00   48.9    84    0.4    83     1.5   967.5    0.00 
 115    5:30   0.01   49.1    84    0.5   264     1.5   967.5    0.00 
 115    5:40   0.01   49.6    82    1.6   262     2.6   967.5    0.00 
 115    5:50   0.02   49.1    84    0.8   238     1.7   967.8    0.00 
 115    6:00   0.05   48.9    84    1.0   296     2.0   967.8    0.00 
 115    6:10   0.04   49.0    85    1.4   121     2.7   968.2    0.00 
 115    6:20   0.03   48.8    85    1.6   110     2.1   968.2    0.00 
 115    6:30   0.09   49.2    85    1.2   199     2.6   968.2    0.00 
 115    6:40   0.15   52.6    78    0.6    33     2.2   968.2    0.00 
 115    6:50   0.21   53.0    76    0.8   255     3.1   968.2    0.00 
 115    7:00   0.30   55.9    69    1.3   322     3.1   968.2    0.00 
 115    7:10   0.33   57.7    65    1.5    60     3.9   968.2    0.00 
 115    7:20   0.35   57.9    66    2.5   331     3.9   968.5    0.00 
 115    7:30   0.36   58.5    65    2.4   287     3.7   968.5    0.00 
 115    7:40   0.34   60.7    61    2.2   296     4.3   968.5    0.00 
 115    7:50   0.43   61.3    59    1.9   289     4.5   968.5    0.00 
 115    8:00   0.58   63.2    55    2.6   300     9.2   968.5    0.00 
 115    8:10   0.33   63.3    55    2.6   290     7.2   968.5    0.00 
 115    8:20   0.51   63.3    54    1.7   289     5.8   968.5    0.00 
 115    8:30   0.57   65.6    49    3.1   307     7.7   968.2    0.00 
 115    8:40   0.35   64.3    51    2.8   287     7.4   968.2    0.00 
 115    8:50   0.44   61.8    58    1.4   246     5.9   968.5    0.00 
 115    9:00   0.59   62.2    56    2.4   321     6.9   968.5    0.00 
 115    9:10   0.52   64.4    52    2.8   290     9.1   968.2    0.00 
 115    9:20   0.38   63.9    53    1.6   302     6.8   968.2    0.00 
 115    9:30   0.27   62.4    57    2.0   272     7.3   968.5    0.00 
 115    9:40   0.22   61.2    60    3.6   276    12.2   968.5    0.00 
 115    9:50   0.26   60.9    61    2.5   296     6.5   968.5    0.00 
 115   10:00   0.17   60.4    64    3.1   266     8.1   968.2    0.00 
 115   10:10   0.19   58.7    68    4.6   190     9.6   968.5    0.00 
 115   10:20   0.23   58.3    70    1.4   283     6.7   968.5    0.00 
 115   10:30   0.36   60.5    65    3.4   308     7.4   968.5    0.00 
 115   10:40   0.54   61.9    61    4.4   285    13.5   968.5    0.00 
 115   10:50   0.47   63.5    57    5.8   277    15.3   968.2    0.00 
 115   11:00   0.48   63.0    58    6.2   269    14.3   968.2    0.00 
 115   11:10   0.25   62.6    59    3.8   293    11.6   967.8    0.00 
 115   11:20   0.24   62.2    60    4.0   282    11.4   967.8    0.00 
 115   11:30   0.29   62.6    59    4.6   283    14.9   967.8    0.00 
 115   11:40   0.31   62.7    60    5.7   279    17.2   967.5    0.00 
 115   11:50   0.40   63.4    60    2.3   290     8.8   967.5    0.00 
 115   12:00   0.25   63.6    60    4.4   283    11.8   967.5    0.00 
 115   12:10   0.19   62.2    63    6.8   284    20.2   967.5    0.00 
 115   12:20   0.29   61.6    65    4.8   281    13.6   967.2    0.00 
 115   12:30   0.55   63.0    63    5.7   288    17.0   967.2    0.00 
 115   12:40   0.35   63.9    62    2.9   293    11.5   966.8    0.00 
 115   12:50   0.23   63.2    65    5.2   280    12.6   966.8    0.00 
 115   13:00   0.34   62.4    68    4.0   282    15.9   967.2    0.00 
 115   13:10   0.34   63.6    65    6.1   283    17.4   966.8    0.00 
 115   13:20   0.23   62.4    68    5.0   287    18.2   966.8    0.00 
 115   13:30   0.25   61.2    72    5.2   282    17.2   966.8    0.00 
 115   13:40   0.34   61.7    70    4.5   285    15.9   966.5    0.00 
 115   13:50   0.25   62.3    69    4.2   281     9.9   966.5    0.00 
 115   14:00   0.20   61.8    70    5.3   279    13.1   966.1    0.00 
 115   14:10   0.20   60.8    71    5.5   261    14.3   966.1    0.00 
 115   14:20   0.20   60.6    71    5.4   273    13.1   966.1    0.00 
 115   14:30   0.22   61.6    69    4.5   287    12.3   965.8    0.00 
 115   14:40   0.20   61.9    69    5.5   278    13.8   965.5    0.00 
 115   14:50   0.20   61.9    68    3.9   287    15.7   965.5    0.00 
 115   15:00   0.19   61.8    67    6.7   275    15.3   965.5    0.00 
 115   15:10   0.18   61.9    66    7.7   274    17.8   965.5    0.00 
 115   15:20   0.14   61.9    65    5.9   281    15.2   965.1    0.00 
 115   15:30   0.17   62.1    64    5.9   277    15.6   965.1    0.00 
 115   15:40   0.23   63.0    62    4.8   273    11.7   964.8    0.00 
 115   15:50   0.23   63.9    60    3.7   286    16.4   964.8    0.00 
 115   16:00   0.36   64.1    59    6.1   292    15.2   964.8    0.00 
 115   16:10   0.31   66.4    54    2.9   295    12.3   964.8    0.00 
 115   16:20   0.18   64.3    56    4.2   289    13.5   964.8    0.00 
 115   16:30   0.23   64.0    57    2.2   289     9.9   964.4    0.00 
 115   16:40   0.25   64.5    55    2.2   293     9.9   964.4    0.00 
 115   16:50   0.26   64.9    54    2.9   300     9.0   964.4    0.00 
 115   17:00   0.19   64.6    54    4.9   312    11.6   964.4    0.00 
 115   17:10   0.26   64.0    55    5.5   314    13.7   964.4    0.00 
 115   17:20   0.22   64.3    54    4.2   311    11.6   964.4    0.00 
 115   17:30   0.16   63.2    55    4.0   280    11.8   964.4    0.00 
 115   17:40   0.12   61.5    59    4.7   314    12.2   964.8    0.00 
 115   17:50   0.07   60.1    62    5.2   319    11.8   964.8    0.00 
 115   18:00   0.04   59.3    63    2.9   308    11.0   965.1    0.00 

Return to Stunt Ranch Reserve graphs page.


Western Regional Climate Center,wrcc@dri.edu